sensor_id;sensor_type;location;lat;lon;timestamp;temperature;humidity
12688;DHT22;6408;59.388;17.798;2023-02-15T00:01:36;3.10;99.90
12688;DHT22;6408;59.388;17.798;2023-02-15T00:04:06;3.10;99.90
12688;DHT22;6408;59.388;17.798;2023-02-15T00:06:34;3.10;99.90
12688;DHT22;6408;59.388;17.798;2023-02-15T00:09:02;3.20;99.90
12688;DHT22;6408;59.388;17.798;2023-02-15T00:11:30;3.20;99.90
12688;DHT22;6408;59.388;17.798;2023-02-15T00:14:11;3.10;99.90
12688;DHT22;6408;59.388;17.798;2023-02-15T00:16:39;3.10;99.90
12688;DHT22;6408;59.388;17.798;2023-02-15T00:19:10;3.10;99.90
12688;DHT22;6408;59.388;17.798;2023-02-15T00:21:39;3.10;99.90
12688;DHT22;6408;59.388;17.798;2023-02-15T00:24:08;3.10;99.90
12688;DHT22;6408;59.388;17.798;2023-02-15T00:26:38;3.10;99.90
12688;DHT22;6408;59.388;17.798;2023-02-15T00:29:06;3.00;99.90
12688;DHT22;6408;59.388;17.798;2023-02-15T00:31:34;3.10;99.90
12688;DHT22;6408;59.388;17.798;2023-02-15T00:34:02;3.10;99.90
12688;DHT22;6408;59.388;17.798;2023-02-15T00:36:32;3.10;99.90
12688;DHT22;6408;59.388;17.798;2023-02-15T00:38:59;3.10;99.90
12688;DHT22;6408;59.388;17.798;2023-02-15T00:41:27;3.10;99.90
12688;DHT22;6408;59.388;17.798;2023-02-15T00:43:54;3.00;99.90
12688;DHT22;6408;59.388;17.798;2023-02-15T00:46:21;3.00;99.90
12688;DHT22;6408;59.388;17.798;2023-02-15T00:48:49;3.00;99.90
12688;DHT22;6408;59.388;17.798;2023-02-15T00:51:17;3.10;99.90
12688;DHT22;6408;59.388;17.798;2023-02-15T00:53:48;3.00;99.90
12688;DHT22;6408;59.388;17.798;2023-02-15T00:56:16;3.00;99.90
12688;DHT22;6408;59.388;17.798;2023-02-15T00:58:43;3.00;99.90
12688;DHT22;6408;59.388;17.798;2023-02-15T01:01:12;3.00;99.90
12688;DHT22;6408;59.388;17.798;2023-02-15T01:03:40;3.00;99.90
12688;DHT22;6408;59.388;17.798;2023-02-15T01:06:09;3.10;99.90
12688;DHT22;6408;59.388;17.798;2023-02-15T01:08:37;3.00;99.90
12688;DHT22;6408;59.388;17.798;2023-02-15T01:11:08;3.00;99.90
12688;DHT22;6408;59.388;17.798;2023-02-15T01:13:36;3.00;99.90
12688;DHT22;6408;59.388;17.798;2023-02-15T01:16:04;3.00;99.90
12688;DHT22;6408;59.388;17.798;2023-02-15T01:18:32;3.00;99.90
12688;DHT22;6408;59.388;17.798;2023-02-15T01:20:59;3.00;99.90
12688;DHT22;6408;59.388;17.798;2023-02-15T01:23:27;3.00;99.90
12688;DHT22;6408;59.388;17.798;2023-02-15T01:25:55;3.00;99.90
12688;DHT22;6408;59.388;17.798;2023-02-15T01:28:24;3.10;99.90
12688;DHT22;6408;59.388;17.798;2023-02-15T01:30:51;3.00;99.90
12688;DHT22;6408;59.388;17.798;2023-02-15T01:33:19;3.00;99.90
12688;DHT22;6408;59.388;17.798;2023-02-15T01:35:47;3.10;99.90
12688;DHT22;6408;59.388;17.798;2023-02-15T01:38:14;3.10;99.90
12688;DHT22;6408;59.388;17.798;2023-02-15T01:40:42;3.10;99.90
12688;DHT22;6408;59.388;17.798;2023-02-15T01:43:11;3.10;99.90
12688;DHT22;6408;59.388;17.798;2023-02-15T01:45:40;3.00;99.90
12688;DHT22;6408;59.388;17.798;2023-02-15T01:48:19;3.00;99.90
12688;DHT22;6408;59.388;17.798;2023-02-15T01:50:50;3.10;99.90
12688;DHT22;6408;59.388;17.798;2023-02-15T01:53:24;3.10;99.90
12688;DHT22;6408;59.388;17.798;2023-02-15T01:55:55;3.10;99.90
12688;DHT22;6408;59.388;17.798;2023-02-15T01:58:26;3.10;99.90
12688;DHT22;6408;59.388;17.798;2023-02-15T02:00:58;3.10;99.90
12688;DHT22;6408;59.388;17.798;2023-02-15T02:03:35;3.10;99.90
12688;DHT22;6408;59.388;17.798;2023-02-15T02:06:03;3.10;99.90
12688;DHT22;6408;59.388;17.798;2023-02-15T02:08:31;3.00;99.90
12688;DHT22;6408;59.388;17.798;2023-02-15T02:10:59;3.00;99.90
12688;DHT22;6408;59.388;17.798;2023-02-15T02:13:27;3.10;99.90
12688;DHT22;6408;59.388;17.798;2023-02-15T02:16:00;3.10;99.90
12688;DHT22;6408;59.388;17.798;2023-02-15T02:18:39;3.10;99.90
12688;DHT22;6408;59.388;17.798;2023-02-15T02:24:34;3.00;99.90
12688;DHT22;6408;59.388;17.798;2023-02-15T02:27:34;3.00;99.90
12688;DHT22;6408;59.388;17.798;2023-02-15T02:36:32;3.00;99.90
12688;DHT22;6408;59.388;17.798;2023-02-15T02:39:09;3.00;99.90
12688;DHT22;6408;59.388;17.798;2023-02-15T02:41:47;3.00;99.90
12688;DHT22;6408;59.388;17.798;2023-02-15T02:44:19;3.10;99.90
12688;DHT22;6408;59.388;17.798;2023-02-15T02:46:51;3.00;99.90
12688;DHT22;6408;59.388;17.798;2023-02-15T02:49:29;3.00;99.90
12688;DHT22;6408;59.388;17.798;2023-02-15T02:52:00;3.00;99.90
12688;DHT22;6408;59.388;17.798;2023-02-15T02:54:28;3.10;99.90
12688;DHT22;6408;59.388;17.798;2023-02-15T02:57:00;3.10;99.90
12688;DHT22;6408;59.388;17.798;2023-02-15T02:59:31;3.10;99.90
12688;DHT22;6408;59.388;17.798;2023-02-15T03:02:04;3.10;99.90
12688;DHT22;6408;59.388;17.798;2023-02-15T03:04:40;3.10;99.90
12688;DHT22;6408;59.388;17.798;2023-02-15T03:07:13;3.10;99.90
12688;DHT22;6408;59.388;17.798;2023-02-15T03:09:45;3.10;99.90
12688;DHT22;6408;59.388;17.798;2023-02-15T03:12:17;3.10;99.90
12688;DHT22;6408;59.388;17.798;2023-02-15T03:14:48;3.10;99.90
12688;DHT22;6408;59.388;17.798;2023-02-15T03:17:17;3.10;99.90
12688;DHT22;6408;59.388;17.798;2023-02-15T03:19:48;3.10;99.90
12688;DHT22;6408;59.388;17.798;2023-02-15T03:22:22;3.00;99.90
12688;DHT22;6408;59.388;17.798;2023-02-15T03:24:57;3.10;99.90
12688;DHT22;6408;59.388;17.798;2023-02-15T03:27:30;3.10;99.90
12688;DHT22;6408;59.388;17.798;2023-02-15T03:30:00;3.10;99.90
12688;DHT22;6408;59.388;17.798;2023-02-15T03:32:30;3.10;99.90
12688;DHT22;6408;59.388;17.798;2023-02-15T03:34:59;3.10;99.90
12688;DHT22;6408;59.388;17.798;2023-02-15T03:37:33;3.10;99.90
12688;DHT22;6408;59.388;17.798;2023-02-15T03:40:06;3.10;99.90
12688;DHT22;6408;59.388;17.798;2023-02-15T03:42:53;3.00;99.90
12688;DHT22;6408;59.388;17.798;2023-02-15T03:45:25;3.00;99.90
12688;DHT22;6408;59.388;17.798;2023-02-15T03:47:56;3.10;99.90
12688;DHT22;6408;59.388;17.798;2023-02-15T03:50:27;3.10;99.90
12688;DHT22;6408;59.388;17.798;2023-02-15T03:53:16;3.10;99.90
12688;DHT22;6408;59.388;17.798;2023-02-15T03:55:46;3.10;99.90
12688;DHT22;6408;59.388;17.798;2023-02-15T03:58:14;3.10;99.90
12688;DHT22;6408;59.388;17.798;2023-02-15T04:01:00;3.10;99.90
12688;DHT22;6408;59.388;17.798;2023-02-15T04:03:51;3.20;99.90
12688;DHT22;6408;59.388;17.798;2023-02-15T04:06:20;3.20;99.90
12688;DHT22;6408;59.388;17.798;2023-02-15T04:08:49;3.10;99.90
12688;DHT22;6408;59.388;17.798;2023-02-15T04:11:33;3.10;99.90
12688;DHT22;6408;59.388;17.798;2023-02-15T04:14:01;3.10;99.90
12688;DHT22;6408;59.388;17.798;2023-02-15T04:16:48;3.10;99.90
12688;DHT22;6408;59.388;17.798;2023-02-15T04:19:15;3.10;99.90
12688;DHT22;6408;59.388;17.798;2023-02-15T04:21:59;3.10;99.90
12688;DHT22;6408;59.388;17.798;2023-02-15T04:24:46;3.10;99.90
12688;DHT22;6408;59.388;17.798;2023-02-15T04:27:30;3.10;99.90
12688;DHT22;6408;59.388;17.798;2023-02-15T04:29:58;3.20;99.90
12688;DHT22;6408;59.388;17.798;2023-02-15T04:32:25;3.10;99.90
12688;DHT22;6408;59.388;17.798;2023-02-15T04:34:53;3.10;99.90
12688;DHT22;6408;59.388;17.798;2023-02-15T04:37:21;3.10;99.90
12688;DHT22;6408;59.388;17.798;2023-02-15T04:39:49;3.20;99.90
12688;DHT22;6408;59.388;17.798;2023-02-15T04:42:17;3.20;99.90
12688;DHT22;6408;59.388;17.798;2023-02-15T04:44:45;3.20;99.90
12688;DHT22;6408;59.388;17.798;2023-02-15T04:47:12;3.20;99.90
12688;DHT22;6408;59.388;17.798;2023-02-15T04:49:39;3.10;99.90
12688;DHT22;6408;59.388;17.798;2023-02-15T04:52:07;3.10;99.90
12688;DHT22;6408;59.388;17.798;2023-02-15T04:54:34;3.20;99.90
12688;DHT22;6408;59.388;17.798;2023-02-15T04:57:04;3.20;99.90
12688;DHT22;6408;59.388;17.798;2023-02-15T04:59:31;3.10;99.90
12688;DHT22;6408;59.388;17.798;2023-02-15T05:01:59;3.10;99.90
12688;DHT22;6408;59.388;17.798;2023-02-15T05:04:26;3.10;99.90
12688;DHT22;6408;59.388;17.798;2023-02-15T05:06:54;3.00;99.90
12688;DHT22;6408;59.388;17.798;2023-02-15T05:09:21;3.00;99.90
12688;DHT22;6408;59.388;17.798;2023-02-15T05:11:49;3.10;99.90
12688;DHT22;6408;59.388;17.798;2023-02-15T05:14:18;3.10;99.90
12688;DHT22;6408;59.388;17.798;2023-02-15T05:16:45;3.00;99.90
12688;DHT22;6408;59.388;17.798;2023-02-15T05:19:13;3.00;99.90
12688;DHT22;6408;59.388;17.798;2023-02-15T05:21:40;3.00;99.90
12688;DHT22;6408;59.388;17.798;2023-02-15T05:24:08;3.00;99.90
12688;DHT22;6408;59.388;17.798;2023-02-15T05:26:49;3.10;99.90
12688;DHT22;6408;59.388;17.798;2023-02-15T05:29:35;3.00;99.90
12688;DHT22;6408;59.388;17.798;2023-02-15T05:32:02;3.10;99.90
12688;DHT22;6408;59.388;17.798;2023-02-15T05:34:30;3.00;99.90
12688;DHT22;6408;59.388;17.798;2023-02-15T05:36:57;3.00;99.90
12688;DHT22;6408;59.388;17.798;2023-02-15T05:39:25;3.00;99.90
12688;DHT22;6408;59.388;17.798;2023-02-15T05:41:53;3.00;99.90
12688;DHT22;6408;59.388;17.798;2023-02-15T05:44:20;3.00;99.90
12688;DHT22;6408;59.388;17.798;2023-02-15T05:46:50;3.00;99.90
12688;DHT22;6408;59.388;17.798;2023-02-15T05:49:17;3.00;99.90
12688;DHT22;6408;59.388;17.798;2023-02-15T05:51:45;3.00;99.90
12688;DHT22;6408;59.388;17.798;2023-02-15T05:54:13;3.00;99.90
12688;DHT22;6408;59.388;17.798;2023-02-15T05:56:40;3.00;99.90
12688;DHT22;6408;59.388;17.798;2023-02-15T05:59:08;3.00;99.90
12688;DHT22;6408;59.388;17.798;2023-02-15T06:01:35;3.00;99.90
12688;DHT22;6408;59.388;17.798;2023-02-15T06:04:05;3.00;99.90
12688;DHT22;6408;59.388;17.798;2023-02-15T06:06:32;3.00;99.90
12688;DHT22;6408;59.388;17.798;2023-02-15T06:09:00;2.90;99.90
12688;DHT22;6408;59.388;17.798;2023-02-15T06:11:27;2.90;99.90
12688;DHT22;6408;59.388;17.798;2023-02-15T06:13:55;2.90;99.90
12688;DHT22;6408;59.388;17.798;2023-02-15T06:16:22;3.00;99.90
12688;DHT22;6408;59.388;17.798;2023-02-15T06:18:49;2.90;99.90
12688;DHT22;6408;59.388;17.798;2023-02-15T06:21:19;3.00;99.90
12688;DHT22;6408;59.388;17.798;2023-02-15T06:23:46;3.00;99.90
12688;DHT22;6408;59.388;17.798;2023-02-15T06:26:14;2.90;99.90
12688;DHT22;6408;59.388;17.798;2023-02-15T06:28:41;2.90;99.90
12688;DHT22;6408;59.388;17.798;2023-02-15T06:31:09;3.00;99.90
12688;DHT22;6408;59.388;17.798;2023-02-15T06:33:36;3.00;99.90
12688;DHT22;6408;59.388;17.798;2023-02-15T06:36:04;3.00;99.90
12688;DHT22;6408;59.388;17.798;2023-02-15T06:38:33;3.10;99.90
12688;DHT22;6408;59.388;17.798;2023-02-15T06:41:00;3.10;99.90
12688;DHT22;6408;59.388;17.798;2023-02-15T06:43:28;3.10;99.90
12688;DHT22;6408;59.388;17.798;2023-02-15T06:45:55;3.00;99.90
12688;DHT22;6408;59.388;17.798;2023-02-15T06:48:23;3.00;99.90
12688;DHT22;6408;59.388;17.798;2023-02-15T06:50:50;3.00;99.90
12688;DHT22;6408;59.388;17.798;2023-02-15T06:53:18;3.00;99.90
12688;DHT22;6408;59.388;17.798;2023-02-15T06:55:47;3.00;99.90
12688;DHT22;6408;59.388;17.798;2023-02-15T06:58:14;3.00;99.90
12688;DHT22;6408;59.388;17.798;2023-02-15T07:00:41;3.00;99.90
12688;DHT22;6408;59.388;17.798;2023-02-15T07:03:09;3.00;99.90
12688;DHT22;6408;59.388;17.798;2023-02-15T07:05:36;3.00;99.90
12688;DHT22;6408;59.388;17.798;2023-02-15T07:08:03;3.00;99.90
12688;DHT22;6408;59.388;17.798;2023-02-15T07:10:31;3.10;99.90
12688;DHT22;6408;59.388;17.798;2023-02-15T07:12:59;3.10;99.90
12688;DHT22;6408;59.388;17.798;2023-02-15T07:15:26;3.10;99.90
12688;DHT22;6408;59.388;17.798;2023-02-15T07:17:53;3.00;99.90
12688;DHT22;6408;59.388;17.798;2023-02-15T07:20:22;3.10;99.90
12688;DHT22;6408;59.388;17.798;2023-02-15T07:22:49;3.00;99.90
12688;DHT22;6408;59.388;17.798;2023-02-15T07:25:17;3.00;99.90
12688;DHT22;6408;59.388;17.798;2023-02-15T07:27:45;3.00;99.90
12688;DHT22;6408;59.388;17.798;2023-02-15T07:30:16;3.00;99.90
12688;DHT22;6408;59.388;17.798;2023-02-15T07:32:43;3.00;99.90
12688;DHT22;6408;59.388;17.798;2023-02-15T07:35:28;3.00;99.90
12688;DHT22;6408;59.388;17.798;2023-02-15T07:37:55;3.10;99.90
12688;DHT22;6408;59.388;17.798;2023-02-15T07:40:23;3.10;99.90
12688;DHT22;6408;59.388;17.798;2023-02-15T07:42:51;3.10;99.90
12688;DHT22;6408;59.388;17.798;2023-02-15T07:45:22;3.10;99.90
12688;DHT22;6408;59.388;17.798;2023-02-15T07:47:49;3.10;99.90
12688;DHT22;6408;59.388;17.798;2023-02-15T07:50:16;3.00;99.90
12688;DHT22;6408;59.388;17.798;2023-02-15T07:52:44;3.00;99.90
12688;DHT22;6408;59.388;17.798;2023-02-15T07:55:12;3.00;99.90
12688;DHT22;6408;59.388;17.798;2023-02-15T07:57:42;3.00;99.90
12688;DHT22;6408;59.388;17.798;2023-02-15T08:00:11;3.00;99.90
12688;DHT22;6408;59.388;17.798;2023-02-15T08:02:41;3.10;99.90
12688;DHT22;6408;59.388;17.798;2023-02-15T08:05:08;3.10;99.90
12688;DHT22;6408;59.388;17.798;2023-02-15T08:07:35;3.00;99.90
12688;DHT22;6408;59.388;17.798;2023-02-15T08:10:03;3.00;99.90
12688;DHT22;6408;59.388;17.798;2023-02-15T08:12:31;3.00;99.90
12688;DHT22;6408;59.388;17.798;2023-02-15T08:14:58;3.10;99.90
12688;DHT22;6408;59.388;17.798;2023-02-15T08:17:26;3.10;99.90
12688;DHT22;6408;59.388;17.798;2023-02-15T08:19:54;3.10;99.90
12688;DHT22;6408;59.388;17.798;2023-02-15T08:22:21;3.10;99.90
12688;DHT22;6408;59.388;17.798;2023-02-15T08:24:50;3.20;99.90
12688;DHT22;6408;59.388;17.798;2023-02-15T08:27:17;3.20;99.90
12688;DHT22;6408;59.388;17.798;2023-02-15T08:29:52;3.20;99.90
12688;DHT22;6408;59.388;17.798;2023-02-15T08:32:19;3.20;99.90
12688;DHT22;6408;59.388;17.798;2023-02-15T08:34:47;3.20;99.90
12688;DHT22;6408;59.388;17.798;2023-02-15T08:37:16;3.20;99.90
12688;DHT22;6408;59.388;17.798;2023-02-15T08:39:43;3.20;99.90
12688;DHT22;6408;59.388;17.798;2023-02-15T08:42:11;3.20;99.90
12688;DHT22;6408;59.388;17.798;2023-02-15T08:44:39;3.30;99.90
12688;DHT22;6408;59.388;17.798;2023-02-15T08:47:06;3.30;99.90
12688;DHT22;6408;59.388;17.798;2023-02-15T08:49:34;3.30;99.90
12688;DHT22;6408;59.388;17.798;2023-02-15T08:52:01;3.30;99.90
12688;DHT22;6408;59.388;17.798;2023-02-15T08:54:30;3.30;99.90
12688;DHT22;6408;59.388;17.798;2023-02-15T08:56:58;3.30;99.90
12688;DHT22;6408;59.388;17.798;2023-02-15T08:59:25;3.30;99.90
12688;DHT22;6408;59.388;17.798;2023-02-15T09:01:53;3.30;99.90
12688;DHT22;6408;59.388;17.798;2023-02-15T09:04:21;3.30;99.90
12688;DHT22;6408;59.388;17.798;2023-02-15T09:06:50;3.30;99.90
12688;DHT22;6408;59.388;17.798;2023-02-15T09:09:19;3.30;99.90
12688;DHT22;6408;59.388;17.798;2023-02-15T09:11:49;3.40;99.90
12688;DHT22;6408;59.388;17.798;2023-02-15T09:14:18;3.40;99.90
12688;DHT22;6408;59.388;17.798;2023-02-15T09:16:47;3.40;99.90
12688;DHT22;6408;59.388;17.798;2023-02-15T09:19:17;3.40;99.90
12688;DHT22;6408;59.388;17.798;2023-02-15T09:21:45;3.40;99.90
12688;DHT22;6408;59.388;17.798;2023-02-15T09:24:14;3.40;99.90
12688;DHT22;6408;59.388;17.798;2023-02-15T09:26:44;3.40;99.90
12688;DHT22;6408;59.388;17.798;2023-02-15T09:29:15;3.30;99.90
12688;DHT22;6408;59.388;17.798;2023-02-15T09:31:44;3.40;99.90
12688;DHT22;6408;59.388;17.798;2023-02-15T09:34:12;3.40;99.90
12688;DHT22;6408;59.388;17.798;2023-02-15T09:36:40;3.40;99.90
12688;DHT22;6408;59.388;17.798;2023-02-15T09:39:10;3.40;99.90
12688;DHT22;6408;59.388;17.798;2023-02-15T09:42:09;3.30;99.90
12688;DHT22;6408;59.388;17.798;2023-02-15T09:47:49;3.40;99.90
12688;DHT22;6408;59.388;17.798;2023-02-15T09:50:25;3.40;99.90
12688;DHT22;6408;59.388;17.798;2023-02-15T09:53:10;3.30;99.90
12688;DHT22;6408;59.388;17.798;2023-02-15T09:55:49;3.40;99.90
12688;DHT22;6408;59.388;17.798;2023-02-15T09:58:24;3.40;99.90
12688;DHT22;6408;59.388;17.798;2023-02-15T10:01:01;3.40;99.90
12688;DHT22;6408;59.388;17.798;2023-02-15T10:03:45;3.40;99.90
12688;DHT22;6408;59.388;17.798;2023-02-15T10:06:23;3.30;99.90
12688;DHT22;6408;59.388;17.798;2023-02-15T10:09:08;3.40;99.90
12688;DHT22;6408;59.388;17.798;2023-02-15T10:11:48;3.40;99.90
12688;DHT22;6408;59.388;17.798;2023-02-15T10:14:40;3.50;99.90
12688;DHT22;6408;59.388;17.798;2023-02-15T10:17:26;3.50;99.90
12688;DHT22;6408;59.388;17.798;2023-02-15T10:20:05;3.50;99.90
12688;DHT22;6408;59.388;17.798;2023-02-15T10:22:43;3.40;99.90
12688;DHT22;6408;59.388;17.798;2023-02-15T10:25:23;3.40;99.90
12688;DHT22;6408;59.388;17.798;2023-02-15T10:27:55;3.40;99.90
12688;DHT22;6408;59.388;17.798;2023-02-15T10:30:32;3.40;99.90
12688;DHT22;6408;59.388;17.798;2023-02-15T10:33:15;3.40;99.90
12688;DHT22;6408;59.388;17.798;2023-02-15T10:35:49;3.50;99.90
12688;DHT22;6408;59.388;17.798;2023-02-15T10:38:25;3.50;99.90
12688;DHT22;6408;59.388;17.798;2023-02-15T10:41:04;3.50;99.90
12688;DHT22;6408;59.388;17.798;2023-02-15T10:43:46;3.50;99.90
12688;DHT22;6408;59.388;17.798;2023-02-15T10:46:28;3.50;99.90
12688;DHT22;6408;59.388;17.798;2023-02-15T10:49:16;3.60;99.90
12688;DHT22;6408;59.388;17.798;2023-02-15T10:51:57;3.50;99.90
12688;DHT22;6408;59.388;17.798;2023-02-15T10:54:35;3.60;99.90
12688;DHT22;6408;59.388;17.798;2023-02-15T10:57:10;3.60;99.90
12688;DHT22;6408;59.388;17.798;2023-02-15T10:59:55;3.60;99.90
12688;DHT22;6408;59.388;17.798;2023-02-15T11:02:35;3.60;99.90
12688;DHT22;6408;59.388;17.798;2023-02-15T11:05:20;3.60;99.90
12688;DHT22;6408;59.388;17.798;2023-02-15T11:07:54;3.70;99.90
12688;DHT22;6408;59.388;17.798;2023-02-15T11:10:28;3.70;99.90
12688;DHT22;6408;59.388;17.798;2023-02-15T11:12:58;3.70;99.90
12688;DHT22;6408;59.388;17.798;2023-02-15T11:15:31;3.70;99.90
12688;DHT22;6408;59.388;17.798;2023-02-15T11:18:05;3.60;99.90
12688;DHT22;6408;59.388;17.798;2023-02-15T11:20:38;3.70;99.90
12688;DHT22;6408;59.388;17.798;2023-02-15T11:23:13;3.70;99.90
12688;DHT22;6408;59.388;17.798;2023-02-15T11:25:46;3.70;99.90
12688;DHT22;6408;59.388;17.798;2023-02-15T11:28:19;3.60;99.90
12688;DHT22;6408;59.388;17.798;2023-02-15T11:30:51;3.60;99.90
12688;DHT22;6408;59.388;17.798;2023-02-15T11:33:23;3.60;99.90
12688;DHT22;6408;59.388;17.798;2023-02-15T11:35:58;3.50;99.90
12688;DHT22;6408;59.388;17.798;2023-02-15T11:38:31;3.60;99.90
12688;DHT22;6408;59.388;17.798;2023-02-15T11:41:02;3.60;99.90
12688;DHT22;6408;59.388;17.798;2023-02-15T11:43:34;3.60;99.90
12688;DHT22;6408;59.388;17.798;2023-02-15T11:46:03;3.60;99.90
12688;DHT22;6408;59.388;17.798;2023-02-15T11:48:31;3.60;99.90
12688;DHT22;6408;59.388;17.798;2023-02-15T11:51:02;3.60;99.90
12688;DHT22;6408;59.388;17.798;2023-02-15T11:53:32;3.70;99.90
12688;DHT22;6408;59.388;17.798;2023-02-15T11:56:01;3.70;99.90
12688;DHT22;6408;59.388;17.798;2023-02-15T11:58:37;3.60;99.90
12688;DHT22;6408;59.388;17.798;2023-02-15T12:01:12;3.60;99.90
12688;DHT22;6408;59.388;17.798;2023-02-15T12:03:46;3.60;99.90
12688;DHT22;6408;59.388;17.798;2023-02-15T12:06:21;3.50;99.90
12688;DHT22;6408;59.388;17.798;2023-02-15T12:08:55;3.50;99.90
12688;DHT22;6408;59.388;17.798;2023-02-15T12:11:29;3.50;99.90
12688;DHT22;6408;59.388;17.798;2023-02-15T12:13:58;3.50;99.90
12688;DHT22;6408;59.388;17.798;2023-02-15T12:16:27;3.50;99.90
12688;DHT22;6408;59.388;17.798;2023-02-15T12:18:56;3.60;99.90
12688;DHT22;6408;59.388;17.798;2023-02-15T12:21:28;3.60;99.90
12688;DHT22;6408;59.388;17.798;2023-02-15T12:23:59;3.50;99.90
12688;DHT22;6408;59.388;17.798;2023-02-15T12:26:29;3.60;99.90
12688;DHT22;6408;59.388;17.798;2023-02-15T12:28:59;3.60;99.90
12688;DHT22;6408;59.388;17.798;2023-02-15T12:31:32;3.60;99.90
12688;DHT22;6408;59.388;17.798;2023-02-15T12:34:03;3.60;99.90
12688;DHT22;6408;59.388;17.798;2023-02-15T12:36:41;3.50;99.90
12688;DHT22;6408;59.388;17.798;2023-02-15T12:39:20;3.60;99.90
12688;DHT22;6408;59.388;17.798;2023-02-15T12:42:00;3.60;99.90
12688;DHT22;6408;59.388;17.798;2023-02-15T12:44:29;3.60;99.90
12688;DHT22;6408;59.388;17.798;2023-02-15T12:46:59;3.40;99.90
12688;DHT22;6408;59.388;17.798;2023-02-15T12:49:28;3.50;99.90
12688;DHT22;6408;59.388;17.798;2023-02-15T12:51:59;3.40;99.90
12688;DHT22;6408;59.388;17.798;2023-02-15T12:54:34;3.30;99.90
12688;DHT22;6408;59.388;17.798;2023-02-15T12:57:21;3.30;99.90
12688;DHT22;6408;59.388;17.798;2023-02-15T12:59:51;3.40;99.90
12688;DHT22;6408;59.388;17.798;2023-02-15T13:02:28;3.40;99.90
12688;DHT22;6408;59.388;17.798;2023-02-15T13:05:03;3.40;99.90
12688;DHT22;6408;59.388;17.798;2023-02-15T13:07:33;3.40;99.90
12688;DHT22;6408;59.388;17.798;2023-02-15T13:10:01;3.40;99.90
12688;DHT22;6408;59.388;17.798;2023-02-15T13:12:30;3.40;99.90
12688;DHT22;6408;59.388;17.798;2023-02-15T13:14:59;3.30;99.90
12688;DHT22;6408;59.388;17.798;2023-02-15T13:17:30;3.30;99.90
12688;DHT22;6408;59.388;17.798;2023-02-15T13:20:03;3.30;99.90
12688;DHT22;6408;59.388;17.798;2023-02-15T13:22:39;3.30;99.90
12688;DHT22;6408;59.388;17.798;2023-02-15T13:25:13;3.30;99.90
12688;DHT22;6408;59.388;17.798;2023-02-15T13:27:42;3.30;99.90
12688;DHT22;6408;59.388;17.798;2023-02-15T13:30:22;3.20;99.90
12688;DHT22;6408;59.388;17.798;2023-02-15T13:32:54;3.30;99.90
12688;DHT22;6408;59.388;17.798;2023-02-15T13:35:23;3.30;99.90
12688;DHT22;6408;59.388;17.798;2023-02-15T13:38:06;3.30;99.90
12688;DHT22;6408;59.388;17.798;2023-02-15T13:40:41;3.40;99.90
12688;DHT22;6408;59.388;17.798;2023-02-15T13:43:23;3.30;99.90
12688;DHT22;6408;59.388;17.798;2023-02-15T13:46:03;3.40;99.90
12688;DHT22;6408;59.388;17.798;2023-02-15T13:48:41;3.30;99.90
12688;DHT22;6408;59.388;17.798;2023-02-15T13:51:17;3.30;99.90
12688;DHT22;6408;59.388;17.798;2023-02-15T13:54:10;3.30;99.90
12688;DHT22;6408;59.388;17.798;2023-02-15T13:56:49;3.30;99.90
12688;DHT22;6408;59.388;17.798;2023-02-15T13:59:42;3.30;99.90
12688;DHT22;6408;59.388;17.798;2023-02-15T14:02:38;3.20;99.90
12688;DHT22;6408;59.388;17.798;2023-02-15T14:08:04;3.20;99.90
12688;DHT22;6408;59.388;17.798;2023-02-15T14:10:43;3.20;99.90
12688;DHT22;6408;59.388;17.798;2023-02-15T14:13:39;3.20;99.90
12688;DHT22;6408;59.388;17.798;2023-02-15T14:16:13;3.20;99.90
12688;DHT22;6408;59.388;17.798;2023-02-15T14:18:46;3.20;99.90
12688;DHT22;6408;59.388;17.798;2023-02-15T14:21:19;3.10;99.90
12688;DHT22;6408;59.388;17.798;2023-02-15T14:23:57;3.10;99.90
12688;DHT22;6408;59.388;17.798;2023-02-15T14:26:33;3.20;99.90
12688;DHT22;6408;59.388;17.798;2023-02-15T14:29:15;3.20;99.90
12688;DHT22;6408;59.388;17.798;2023-02-15T14:31:45;3.10;99.90
12688;DHT22;6408;59.388;17.798;2023-02-15T14:34:19;3.20;99.90
12688;DHT22;6408;59.388;17.798;2023-02-15T14:36:49;3.20;99.90
12688;DHT22;6408;59.388;17.798;2023-02-15T14:39:28;3.20;99.90
12688;DHT22;6408;59.388;17.798;2023-02-15T14:42:20;3.10;99.90
12688;DHT22;6408;59.388;17.798;2023-02-15T14:44:56;3.10;99.90
12688;DHT22;6408;59.388;17.798;2023-02-15T14:47:30;3.10;99.90
12688;DHT22;6408;59.388;17.798;2023-02-15T14:50:38;3.10;99.90
12688;DHT22;6408;59.388;17.798;2023-02-15T14:53:34;3.00;99.90
12688;DHT22;6408;59.388;17.798;2023-02-15T14:56:16;3.10;99.90
12688;DHT22;6408;59.388;17.798;2023-02-15T14:59:14;3.10;99.90
12688;DHT22;6408;59.388;17.798;2023-02-15T15:01:55;3.00;99.90
12688;DHT22;6408;59.388;17.798;2023-02-15T15:04:27;2.90;99.90
12688;DHT22;6408;59.388;17.798;2023-02-15T15:07:07;2.90;99.90
12688;DHT22;6408;59.388;17.798;2023-02-15T15:09:37;2.90;99.90
12688;DHT22;6408;59.388;17.798;2023-02-15T15:12:37;2.90;99.90
12688;DHT22;6408;59.388;17.798;2023-02-15T15:15:12;2.90;99.90
12688;DHT22;6408;59.388;17.798;2023-02-15T15:17:58;2.90;99.90
12688;DHT22;6408;59.388;17.798;2023-02-15T15:20:44;3.00;99.90
12688;DHT22;6408;59.388;17.798;2023-02-15T15:23:38;3.00;99.90
12688;DHT22;6408;59.388;17.798;2023-02-15T15:26:24;2.90;99.90
12688;DHT22;6408;59.388;17.798;2023-02-15T15:29:00;2.80;99.90
12688;DHT22;6408;59.388;17.798;2023-02-15T15:31:48;2.80;99.90
12688;DHT22;6408;59.388;17.798;2023-02-15T15:34:48;2.80;99.90
12688;DHT22;6408;59.388;17.798;2023-02-15T15:38:04;2.70;99.90
12688;DHT22;6408;59.388;17.798;2023-02-15T15:41:04;2.70;99.90
12688;DHT22;6408;59.388;17.798;2023-02-15T15:46:54;2.80;99.90
12688;DHT22;6408;59.388;17.798;2023-02-15T15:49:30;2.70;99.90
12688;DHT22;6408;59.388;17.798;2023-02-15T15:52:00;2.70;99.90
12688;DHT22;6408;59.388;17.798;2023-02-15T15:54:29;2.70;99.90
12688;DHT22;6408;59.388;17.798;2023-02-15T15:56:59;2.70;99.90
12688;DHT22;6408;59.388;17.798;2023-02-15T15:59:31;2.70;99.90
12688;DHT22;6408;59.388;17.798;2023-02-15T16:02:06;2.70;99.90
12688;DHT22;6408;59.388;17.798;2023-02-15T16:04:34;2.70;99.90
12688;DHT22;6408;59.388;17.798;2023-02-15T16:07:20;2.60;99.90
12688;DHT22;6408;59.388;17.798;2023-02-15T16:09:57;2.50;99.90
12688;DHT22;6408;59.388;17.798;2023-02-15T16:12:26;2.50;99.90
12688;DHT22;6408;59.388;17.798;2023-02-15T16:14:55;2.50;99.90
12688;DHT22;6408;59.388;17.798;2023-02-15T16:17:26;2.50;99.90
12688;DHT22;6408;59.388;17.798;2023-02-15T16:20:02;2.50;99.90
12688;DHT22;6408;59.388;17.798;2023-02-15T16:22:31;2.50;99.90
12688;DHT22;6408;59.388;17.798;2023-02-15T16:27:50;2.50;99.90
12688;DHT22;6408;59.388;17.798;2023-02-15T16:30:27;2.40;99.90
12688;DHT22;6408;59.388;17.798;2023-02-15T16:33:05;2.40;99.90
12688;DHT22;6408;59.388;17.798;2023-02-15T16:35:34;2.50;99.90
12688;DHT22;6408;59.388;17.798;2023-02-15T16:38:03;2.50;99.90
12688;DHT22;6408;59.388;17.798;2023-02-15T16:40:46;2.50;99.90
12688;DHT22;6408;59.388;17.798;2023-02-15T16:43:22;2.40;99.90